Manzanillo Airport, Mexico

2:54 PM CST on November 27, 2014 (GMT -0600)
Playa De Oro International | Change Station
CLOSE
Current Station
Airport
Location: Manzanillo Airport,
Elevation: 26 ft
Nearby Weather Stations

Elev 26 ft 19.14 °N, 104.56 °W | Updated 1 hour ago

Mostly Cloudy
Mostly Cloudy
86 °F
Feels Like 90 °F
N
7
Wind Variable Wind from SSW

Today
High -- | Low -- °F
--% Chance of Precip.
Yesterday
High -- | Low -- °F
Precip. -- in
7:12 AM 6:18 PM
Waxing Crescent, 32% visible
Pressure 29.85 in
Visibility 10.0 miles
Clouds Mostly Cloudy 27000 ft
Heat Index 90 °F
Dew Point 70 °F
Humidity 58%
Rainfall 0.00 in
Snow Depth Not available.
UV 4 out of 12
Pollen Not available.
Air Quality Not available.
Flu Activity Not available.
METAR MMZO 271947Z 21006KT 10SM BKN270 30/21 A2985 RMK 8/009 HZY

More Conditions Fewer Conditions

Pressure 29.85 in
Visibility 10.0 miles
Clouds Mostly Cloudy 27000 ft
Heat Index 90 °F
Dew Point 70 °F
Humidity 58%
Rainfall 0.00 in
Snow Depth Not available.
UV 4 out of 12
Pollen Not available.
Air Quality Not available.
Flu Activity Not available.
METAR MMZO 271947Z 21006KT 10SM BKN270 30/21 A2985 RMK 8/009 HZY

More Conditions Fewer Conditions

10-Day Weather Forecast

Almanac

Astronomy

Nov. 27, 2014 Rise Set
Actual Time
Civil Twilight
Nautical Twilight
Astronomical Twilight
Moon
Length of Visible Light
Length of Day
Tomorrow will be .
, % of the Moon is Illuminated

Today's Extremes

Country Highs Country Lows

Community

WunderPhotos

Upload Photos

1,774,100 photos uploaded!

WunderBlogs® & News

Nearby

Air Quality

  Air Quality AQ Index Pollutant
Not available.

Snow Depth

Station Depth Elevation

Earthquake Activity

City Distance Mag. Time & Date
Minimum magnitude displayed is 2.5.

Coastal Water Temperatures

Place Temperature

Nearby Weather Stations